sensor_id;sensor_type;location;lat;lon;timestamp;pressure;altitude;pressure_sealevel;temperature;humidity
62791;BME280;48830;53.426;10.300;2023-04-01T00:02:23;99510.81;;;11.12;100.00
62791;BME280;48830;53.426;10.300;2023-04-01T00:04:48;99513.44;;;11.09;100.00
62791;BME280;48830;53.426;10.300;2023-04-01T00:07:14;99510.00;;;11.09;100.00
62791;BME280;48830;53.426;10.300;2023-04-01T00:09:39;99507.41;;;11.12;100.00
62791;BME280;48830;53.426;10.300;2023-04-01T00:12:05;99499.66;;;11.13;100.00
62791;BME280;48830;53.426;10.300;2023-04-01T00:14:30;99506.56;;;11.11;100.00
62791;BME280;48830;53.426;10.300;2023-04-01T00:16:56;99512.59;;;11.09;100.00
62791;BME280;48830;53.426;10.300;2023-04-01T00:19:21;99515.16;;;11.07;100.00
62791;BME280;48830;53.426;10.300;2023-04-01T00:21:47;99509.16;;;11.10;100.00
62791;BME280;48830;53.426;10.300;2023-04-01T00:24:13;99507.44;;;11.09;100.00
62791;BME280;48830;53.426;10.300;2023-04-01T00:26:39;99515.19;;;11.04;100.00
62791;BME280;48830;53.426;10.300;2023-04-01T00:29:05;99515.19;;;11.04;100.00
62791;BME280;48830;53.426;10.300;2023-04-01T00:31:32;99509.19;;;11.02;100.00
62791;BME280;48830;53.426;10.300;2023-04-01T00:33:57;99509.25;;;10.94;100.00
62791;BME280;48830;53.426;10.300;2023-04-01T00:36:23;99511.84;;;10.87;100.00
62791;BME280;48830;53.426;10.300;2023-04-01T00:38:49;99511.78;;;10.96;100.00
62791;BME280;48830;53.426;10.300;2023-04-01T00:41:16;99504.13;;;10.93;100.00
62791;BME280;48830;53.426;10.300;2023-04-01T00:43:43;99508.38;;;10.92;100.00
62791;BME280;48830;53.426;10.300;2023-04-01T00:46:10;99504.94;;;10.96;100.00
62791;BME280;48830;53.426;10.300;2023-04-01T00:48:38;99507.53;;;10.93;100.00
62791;BME280;48830;53.426;10.300;2023-04-01T00:51:18;99499.84;;;10.89;100.00
62791;BME280;48830;53.426;10.300;2023-04-01T00:53:48;99504.16;;;10.88;100.00
62791;BME280;48830;53.426;10.300;2023-04-01T00:56:24;99505.00;;;10.89;100.00
62791;BME280;48830;53.426;10.300;2023-04-01T00:58:58;99508.44;;;10.88;100.00
62791;BME280;48830;53.426;10.300;2023-04-01T01:01:25;99514.44;;;10.88;100.00
62791;BME280;48830;53.426;10.300;2023-04-01T01:03:51;99511.84;;;10.87;100.00
62791;BME280;48830;53.426;10.300;2023-04-01T01:16:48;99513.63;;;10.78;100.00
62791;BME280;48830;53.426;10.300;2023-04-01T01:24:41;99510.16;;;10.86;100.00
62791;BME280;48830;53.426;10.300;2023-04-01T01:27:11;99518.75;;;10.80;100.00
62791;BME280;48830;53.426;10.300;2023-04-01T01:30:01;99518.78;;;10.82;100.00
62791;BME280;48830;53.426;10.300;2023-04-01T01:37:46;99506.75;;;10.81;100.00
62791;BME280;48830;53.426;10.300;2023-04-01T01:40:13;99512.75;;;10.83;100.00
62791;BME280;48830;53.426;10.300;2023-04-01T01:42:45;99513.63;;;10.82;100.00
62791;BME280;48830;53.426;10.300;2023-04-01T01:45:13;99511.88;;;10.81;100.00
62791;BME280;48830;53.426;10.300;2023-04-01T01:47:40;99519.59;;;10.81;100.00
62791;BME280;48830;53.426;10.300;2023-04-01T01:50:07;99521.31;;;10.80;100.00
62791;BME280;48830;53.426;10.300;2023-04-01T01:52:33;99511.88;;;10.81;100.00
62791;BME280;48830;53.426;10.300;2023-04-01T01:54:59;99521.34;;;10.77;100.00
62791;BME280;48830;53.426;10.300;2023-04-01T01:57:34;99517.94;;;10.70;100.00
62791;BME280;48830;53.426;10.300;2023-04-01T02:00:09;99523.09;;;10.73;100.00
62791;BME280;48830;53.426;10.300;2023-04-01T02:02:45;99532.50;;;10.73;100.00
62791;BME280;48830;53.426;10.300;2023-04-01T02:05:17;99525.66;;;10.73;100.00
62791;BME280;48830;53.426;10.300;2023-04-01T02:07:49;99527.38;;;10.68;100.00
62791;BME280;48830;53.426;10.300;2023-04-01T02:10:19;99520.56;;;10.66;100.00
62791;BME280;48830;53.426;10.300;2023-04-01T02:12:46;99526.59;;;10.57;100.00
62791;BME280;48830;53.426;10.300;2023-04-01T02:15:13;99524.03;;;10.57;100.00
62791;BME280;48830;53.426;10.300;2023-04-01T02:17:43;99522.28;;;10.62;100.00
62791;BME280;48830;53.426;10.300;2023-04-01T02:20:20;99526.56;;;10.62;100.00
62791;BME280;48830;53.426;10.300;2023-04-01T02:22:53;99525.72;;;10.61;100.00
62791;BME280;48830;53.426;10.300;2023-04-01T02:25:27;99528.25;;;10.64;100.00
62791;BME280;48830;53.426;10.300;2023-04-01T02:27:53;99527.41;;;10.65;100.00
62791;BME280;48830;53.426;10.300;2023-04-01T02:30:20;99533.41;;;10.67;100.00
62791;BME280;48830;53.426;10.300;2023-04-01T02:32:46;99524.00;;;10.66;100.00
62791;BME280;48830;53.426;10.300;2023-04-01T02:35:15;99536.00;;;10.58;100.00
62791;BME280;48830;53.426;10.300;2023-04-01T02:37:42;99534.28;;;10.63;100.00
62791;BME280;48830;53.426;10.300;2023-04-01T02:40:11;99534.31;;;10.57;100.00
62791;BME280;48830;53.426;10.300;2023-04-01T02:42:38;99535.97;;;10.64;100.00
62791;BME280;48830;53.426;10.300;2023-04-01T02:45:04;99533.41;;;10.67;100.00
62791;BME280;48830;53.426;10.300;2023-04-01T02:47:30;99537.72;;;10.62;100.00
62791;BME280;48830;53.426;10.300;2023-04-01T02:49:56;99542.84;;;10.62;100.00
62791;BME280;48830;53.426;10.300;2023-04-01T02:52:24;99537.72;;;10.62;100.00
62791;BME280;48830;53.426;10.300;2023-04-01T02:54:50;99548.81;;;10.64;100.00
62791;BME280;48830;53.426;10.300;2023-04-01T02:57:16;99549.72;;;10.60;100.00
62791;BME280;48830;53.426;10.300;2023-04-01T02:59:41;99544.59;;;10.57;100.00
62791;BME280;48830;53.426;10.300;2023-04-01T03:02:07;99551.44;;;10.61;100.00
62791;BME280;48830;53.426;10.300;2023-04-01T03:04:32;99560.00;;;10.52;100.00
62791;BME280;48830;53.426;10.300;2023-04-01T03:06:58;99556.56;;;10.61;100.00
62791;BME280;48830;53.426;10.300;2023-04-01T03:09:24;99554.00;;;10.58;100.00
62791;BME280;48830;53.426;10.300;2023-04-01T03:11:49;99550.56;;;10.59;100.00
62791;BME280;48830;53.426;10.300;2023-04-01T03:14:15;99554.00;;;10.57;100.00
62791;BME280;48830;53.426;10.300;2023-04-01T03:16:40;99554.88;;;10.54;100.00
62791;BME280;48830;53.426;10.300;2023-04-01T03:19:06;99559.13;;;10.61;100.00
62791;BME280;48830;53.426;10.300;2023-04-01T03:21:31;99562.59;;;10.52;100.00
62791;BME280;48830;53.426;10.300;2023-04-01T03:23:57;99564.25;;;10.60;100.00
62791;BME280;48830;53.426;10.300;2023-04-01T03:26:22;99560.91;;;10.50;100.00
62791;BME280;48830;53.426;10.300;2023-04-01T03:28:48;99558.31;;;10.50;100.00
62791;BME280;48830;53.426;10.300;2023-04-01T03:31:14;99558.31;;;10.50;100.00
62791;BME280;48830;53.426;10.300;2023-04-01T03:33:47;99566.91;;;10.46;100.00
62791;BME280;48830;53.426;10.300;2023-04-01T03:36:13;99559.22;;;10.41;100.00
62791;BME280;48830;53.426;10.300;2023-04-01T03:38:42;99566.88;;;10.52;100.00
62791;BME280;48830;53.426;10.300;2023-04-01T03:41:11;99560.91;;;10.47;100.00
62791;BME280;48830;53.426;10.300;2023-04-01T03:43:37;99562.59;;;10.52;100.00
62791;BME280;48830;53.426;10.300;2023-04-01T03:46:03;99565.13;;;10.54;100.00
62791;BME280;48830;53.426;10.300;2023-04-01T03:48:29;99569.44;;;10.55;100.00
62791;BME280;48830;53.426;10.300;2023-04-01T03:50:54;99574.56;;;10.54;100.00
62791;BME280;48830;53.426;10.300;2023-04-01T03:53:21;99574.56;;;10.49;100.00
62791;BME280;48830;53.426;10.300;2023-04-01T03:55:47;99572.03;;;10.46;100.00
62791;BME280;48830;53.426;10.300;2023-04-01T03:58:12;99573.75;;;10.47;100.00
62791;BME280;48830;53.426;10.300;2023-04-01T04:00:38;99583.19;;;10.42;100.00
62791;BME280;48830;53.426;10.300;2023-04-01T04:03:05;99580.59;;;10.42;100.00
62791;BME280;48830;53.426;10.300;2023-04-01T04:05:34;99584.03;;;10.50;100.00
62791;BME280;48830;53.426;10.300;2023-04-01T04:07:59;99581.47;;;10.45;100.00
62791;BME280;48830;53.426;10.300;2023-04-01T04:10:25;99581.47;;;10.42;100.00
62791;BME280;48830;53.426;10.300;2023-04-01T04:12:51;99584.00;;;10.51;100.00
62791;BME280;48830;53.426;10.300;2023-04-01T04:15:18;99580.56;;;10.56;100.00
62791;BME280;48830;53.426;10.300;2023-04-01T04:17:45;99589.13;;;10.56;100.00
62791;BME280;48830;53.426;10.300;2023-04-01T04:20:11;99582.25;;;10.58;100.00
62791;BME280;48830;53.426;10.300;2023-04-01T04:22:36;99587.41;;;10.61;100.00
62791;BME280;48830;53.426;10.300;2023-04-01T04:25:05;99589.09;;;10.59;100.00
62791;BME280;48830;53.426;10.300;2023-04-01T04:27:30;99590.84;;;10.54;100.00
62791;BME280;48830;53.426;10.300;2023-04-01T04:30:06;99592.56;;;10.54;100.00
62791;BME280;48830;53.426;10.300;2023-04-01T04:32:32;99592.56;;;10.47;100.00
62791;BME280;48830;53.426;10.300;2023-04-01T04:34:58;99594.25;;;10.53;100.00
62791;BME280;48830;53.426;10.300;2023-04-01T04:37:23;99605.44;;;10.50;100.00
62791;BME280;48830;53.426;10.300;2023-04-01T04:39:51;99599.44;;;10.50;100.00
62791;BME280;48830;53.426;10.300;2023-04-01T04:42:17;99607.16;;;10.50;100.00
62791;BME280;48830;53.426;10.300;2023-04-01T04:44:42;99613.97;;;10.56;100.00
62791;BME280;48830;53.426;10.300;2023-04-01T04:47:08;99610.56;;;10.55;100.00
62791;BME280;48830;53.426;10.300;2023-04-01T04:49:33;99615.72;;;10.46;100.00
62791;BME280;48830;53.426;10.300;2023-04-01T04:52:04;99618.25;;;10.49;100.00
62791;BME280;48830;53.426;10.300;2023-04-01T04:54:29;99613.16;;;10.46;100.00
62791;BME280;48830;53.426;10.300;2023-04-01T04:56:57;99616.53;;;10.52;100.00
62791;BME280;48830;53.426;10.300;2023-04-01T04:59:25;99626.00;;;10.46;100.00
62791;BME280;48830;53.426;10.300;2023-04-01T05:02:17;99623.38;;;10.49;100.00
62791;BME280;48830;53.426;10.300;2023-04-01T05:04:43;99626.84;;;10.45;100.00
62791;BME280;48830;53.426;10.300;2023-04-01T05:07:10;99629.41;;;10.51;100.00
62791;BME280;48830;53.426;10.300;2023-04-01T05:09:35;99632.84;;;10.41;100.00
62791;BME280;48830;53.426;10.300;2023-04-01T05:12:01;99627.69;;;10.48;100.00
62791;BME280;48830;53.426;10.300;2023-04-01T05:14:35;99641.38;;;10.47;100.00
62791;BME280;48830;53.426;10.300;2023-04-01T05:17:11;99638.81;;;10.55;100.00
62791;BME280;48830;53.426;10.300;2023-04-01T05:19:37;99638.81;;;10.55;100.00
62791;BME280;48830;53.426;10.300;2023-04-01T05:22:03;99640.53;;;10.50;100.00
62791;BME280;48830;53.426;10.300;2023-04-01T05:24:29;99643.94;;;10.52;100.00
62791;BME280;48830;53.426;10.300;2023-04-01T05:26:55;99648.25;;;10.45;100.00
62791;BME280;48830;53.426;10.300;2023-04-01T05:29:21;99648.25;;;10.51;100.00
62791;BME280;48830;53.426;10.300;2023-04-01T05:31:53;99655.94;;;10.56;100.00
62791;BME280;48830;53.426;10.300;2023-04-01T05:34:18;99649.94;;;10.60;100.00
62791;BME280;48830;53.426;10.300;2023-04-01T05:36:44;99655.88;;;10.65;100.00
62791;BME280;48830;53.426;10.300;2023-04-01T05:39:10;99655.91;;;10.62;100.00
62791;BME280;48830;53.426;10.300;2023-04-01T05:41:37;99662.78;;;10.60;100.00
62791;BME280;48830;53.426;10.300;2023-04-01T05:44:03;99661.91;;;10.66;100.00
62791;BME280;48830;53.426;10.300;2023-04-01T05:46:37;99665.34;;;10.60;100.00
62791;BME280;48830;53.426;10.300;2023-04-01T05:49:35;99663.63;;;10.62;100.00
62791;BME280;48830;53.426;10.300;2023-04-01T05:52:02;99671.34;;;10.62;100.00
62791;BME280;48830;53.426;10.300;2023-04-01T05:54:27;99681.59;;;10.65;100.00
62791;BME280;48830;53.426;10.300;2023-04-01T05:56:53;99679.91;;;10.61;100.00
62791;BME280;48830;53.426;10.300;2023-04-01T05:59:19;99680.78;;;10.43;100.00
62791;BME280;48830;53.426;10.300;2023-04-01T06:01:45;99685.06;;;10.15;100.00
62791;BME280;48830;53.426;10.300;2023-04-01T06:04:15;99693.63;;;9.90;100.00
62791;BME280;48830;53.426;10.300;2023-04-01T06:06:41;99691.06;;;9.94;100.00
62791;BME280;48830;53.426;10.300;2023-04-01T06:09:18;99692.81;;;9.95;100.00
62791;BME280;48830;53.426;10.300;2023-04-01T06:18:01;99706.44;;;9.53;100.00
62791;BME280;48830;53.426;10.300;2023-04-01T06:26:02;99719.25;;;9.44;100.00
62791;BME280;48830;53.426;10.300;2023-04-01T06:28:55;99729.44;;;9.21;100.00
62791;BME280;48830;53.426;10.300;2023-04-01T06:32:01;99726.88;;;9.29;100.00
62791;BME280;48830;53.426;10.300;2023-04-01T06:41:04;99742.25;;;9.23;100.00
62791;BME280;48830;53.426;10.300;2023-04-01T06:47:08;99743.88;;;9.01;100.00
62791;BME280;48830;53.426;10.300;2023-04-01T06:50:43;99748.16;;;9.09;100.00
62791;BME280;48830;53.426;10.300;2023-04-01T06:53:09;99746.38;;;8.93;100.00
62791;BME280;48830;53.426;10.300;2023-04-01T06:56:12;99756.72;;;9.10;100.00
62791;BME280;48830;53.426;10.300;2023-04-01T06:59:11;99766.88;;;8.90;100.00
62791;BME280;48830;53.426;10.300;2023-04-01T07:04:24;99771.06;;;8.82;100.00
62791;BME280;48830;53.426;10.300;2023-04-01T07:09:53;99781.28;;;8.73;100.00
62791;BME280;48830;53.426;10.300;2023-04-01T07:17:50;99798.19;;;8.49;100.00
62791;BME280;48830;53.426;10.300;2023-04-01T07:20:23;99809.38;;;8.60;100.00
62791;BME280;48830;53.426;10.300;2023-04-01T07:22:54;99813.50;;;8.41;100.00
62791;BME280;48830;53.426;10.300;2023-04-01T07:25:38;99811.91;;;8.60;100.00
62791;BME280;48830;53.426;10.300;2023-04-01T07:28:30;99817.97;;;8.70;100.00
62791;BME280;48830;53.426;10.300;2023-04-01T07:34:04;99828.00;;;8.44;100.00
62791;BME280;48830;53.426;10.300;2023-04-01T07:44:39;99841.66;;;8.43;100.00
62791;BME280;48830;53.426;10.300;2023-04-01T07:47:25;99845.97;;;8.46;100.00
62791;BME280;48830;53.426;10.300;2023-04-01T07:50:09;99850.97;;;8.35;100.00
62791;BME280;48830;53.426;10.300;2023-04-01T08:05:00;99873.13;;;8.30;100.00
62791;BME280;48830;53.426;10.300;2023-04-01T08:17:02;99894.16;;;8.04;100.00
62791;BME280;48830;53.426;10.300;2023-04-01T08:22:09;99904.59;;;8.20;100.00
62791;BME280;48830;53.426;10.300;2023-04-01T08:24:42;99908.09;;;8.31;100.00
62791;BME280;48830;53.426;10.300;2023-04-01T08:27:19;99906.16;;;8.08;100.00
62791;BME280;48830;53.426;10.300;2023-04-01T08:29:57;99914.78;;;8.16;100.00
62791;BME280;48830;53.426;10.300;2023-04-01T08:32:39;99918.97;;;8.11;100.00
62791;BME280;48830;53.426;10.300;2023-04-01T08:37:45;99929.28;;;8.16;100.00
62791;BME280;48830;53.426;10.300;2023-04-01T08:40:35;99922.50;;;8.18;100.00
62791;BME280;48830;53.426;10.300;2023-04-01T08:46:09;99940.41;;;8.18;100.00
62791;BME280;48830;53.426;10.300;2023-04-01T08:56:49;99953.69;;;7.89;100.00
62791;BME280;48830;53.426;10.300;2023-04-01T09:34:57;100008.53;;;8.08;100.00
62791;BME280;48830;53.426;10.300;2023-04-01T09:40:37;100009.28;;;8.01;100.00
62791;BME280;48830;53.426;10.300;2023-04-01T09:43:22;100011.31;;;8.25;100.00
62791;BME280;48830;53.426;10.300;2023-04-01T09:46:10;100016.22;;;8.08;100.00
62791;BME280;48830;53.426;10.300;2023-04-01T09:51:59;100021.22;;;7.99;100.00
62791;BME280;48830;53.426;10.300;2023-04-01T10:01:46;100039.13;;;7.98;100.00
62791;BME280;48830;53.426;10.300;2023-04-01T10:06:52;100047.88;;;8.16;100.00
62791;BME280;48830;53.426;10.300;2023-04-01T10:20:43;100060.53;;;8.06;100.00
62791;BME280;48830;53.426;10.300;2023-04-01T10:54:18;100093.47;;;8.40;100.00
62791;BME280;48830;53.426;10.300;2023-04-01T11:20:42;100131.25;;;8.58;100.00
62791;BME280;48830;53.426;10.300;2023-04-01T11:26:21;100135.78;;;8.78;100.00
62791;BME280;48830;53.426;10.300;2023-04-01T11:29:40;100150.19;;;8.70;100.00
62791;BME280;48830;53.426;10.300;2023-04-01T11:32:28;100151.16;;;8.78;100.00
62791;BME280;48830;53.426;10.300;2023-04-01T11:55:38;100181.13;;;8.24;100.00
62791;BME280;48830;53.426;10.300;2023-04-01T12:06:44;100204.34;;;8.35;100.00
62791;BME280;48830;53.426;10.300;2023-04-01T12:09:40;100207.91;;;8.45;100.00
62791;BME280;48830;53.426;10.300;2023-04-01T12:14:58;100213.59;;;8.27;100.00
62791;BME280;48830;53.426;10.300;2023-04-01T12:17:41;100220.34;;;8.22;100.00
62791;BME280;48830;53.426;10.300;2023-04-01T12:20:23;100225.38;;;8.15;100.00
62791;BME280;48830;53.426;10.300;2023-04-01T12:26:00;100235.53;;;8.12;100.00
62791;BME280;48830;53.426;10.300;2023-04-01T12:39:56;100255.69;;;7.93;100.00
62791;BME280;48830;53.426;10.300;2023-04-01T12:48:24;100268.50;;;7.93;100.00
62791;BME280;48830;53.426;10.300;2023-04-01T12:56:28;100285.25;;;7.75;100.00
62791;BME280;48830;53.426;10.300;2023-04-01T12:59:15;100288.13;;;7.94;100.00
62791;BME280;48830;53.426;10.300;2023-04-01T13:23:20;100336.13;;;7.60;100.00
62791;BME280;48830;53.426;10.300;2023-04-01T13:28:34;100343.28;;;7.78;100.00
62791;BME280;48830;53.426;10.300;2023-04-01T13:39:27;100350.31;;;7.47;100.00
62791;BME280;48830;53.426;10.300;2023-04-01T13:42:08;100361.19;;;7.37;100.00
62791;BME280;48830;53.426;10.300;2023-04-01T13:44:55;100366.31;;;7.37;100.00
62791;BME280;48830;53.426;10.300;2023-04-01T13:47:29;100361.16;;;7.35;100.00
62791;BME280;48830;53.426;10.300;2023-04-01T13:58:45;100382.78;;;7.50;100.00
62791;BME280;48830;53.426;10.300;2023-04-01T14:01:32;100385.38;;;7.51;100.00
62791;BME280;48830;53.426;10.300;2023-04-01T14:24:15;100426.00;;;7.38;100.00
62791;BME280;48830;53.426;10.300;2023-04-01T14:32:44;100431.34;;;7.10;100.00
62791;BME280;48830;53.426;10.300;2023-04-01T14:35:31;100431.13;;;7.38;100.00
62791;BME280;48830;53.426;10.300;2023-04-01T14:38:26;100436.47;;;7.10;100.00
62791;BME280;48830;53.426;10.300;2023-04-01T14:51:09;100465.31;;;7.06;100.00
62791;BME280;48830;53.426;10.300;2023-04-01T14:53:43;100467.03;;;7.07;100.00
62791;BME280;48830;53.426;10.300;2023-04-01T14:56:38;100464.66;;;6.80;100.00
62791;BME280;48830;53.426;10.300;2023-04-01T14:59:29;100463.09;;;6.86;100.00
62791;BME280;48830;53.426;10.300;2023-04-01T15:04:47;100486.41;;;6.99;100.00
62791;BME280;48830;53.426;10.300;2023-04-01T15:07:26;100494.59;;;6.84;100.00
62791;BME280;48830;53.426;10.300;2023-04-01T15:10:12;100496.00;;;6.73;100.00
62791;BME280;48830;53.426;10.300;2023-04-01T15:13:23;100491.97;;;6.83;100.00
62791;BME280;48830;53.426;10.300;2023-04-01T15:19:09;100511.59;;;6.84;100.00
62791;BME280;48830;53.426;10.300;2023-04-01T15:30:33;100532.53;;;6.71;100.00
62791;BME280;48830;53.426;10.300;2023-04-01T15:33:20;100540.59;;;6.54;100.00
62791;BME280;48830;53.426;10.300;2023-04-01T15:38:49;100550.13;;;6.60;100.00
62791;BME280;48830;53.426;10.300;2023-04-01T15:43:47;100555.03;;;6.52;100.00
62791;BME280;48830;53.426;10.300;2023-04-01T15:49:20;100571.25;;;6.54;100.00
62791;BME280;48830;53.426;10.300;2023-04-01T15:52:13;100574.13;;;6.35;100.00
62791;BME280;48830;53.426;10.300;2023-04-01T16:03:51;100588.19;;;6.22;100.00
62791;BME280;48830;53.426;10.300;2023-04-01T16:09:49;100604.59;;;6.30;100.00
62791;BME280;48830;53.426;10.300;2023-04-01T16:12:19;100598.25;;;6.18;100.00
62791;BME280;48830;53.426;10.300;2023-04-01T16:15:20;100619.53;;;6.18;100.00
62791;BME280;48830;53.426;10.300;2023-04-01T16:18:23;100622.75;;;6.13;100.00
62791;BME280;48830;53.426;10.300;2023-04-01T16:21:02;100632.28;;;6.18;100.00
62791;BME280;48830;53.426;10.300;2023-04-01T16:23:51;100628.94;;;6.19;100.00
62791;BME280;48830;53.426;10.300;2023-04-01T16:31:38;100638.00;;;6.10;100.00
62791;BME280;48830;53.426;10.300;2023-04-01T16:34:14;100646.47;;;6.09;100.00
62791;BME280;48830;53.426;10.300;2023-04-01T16:39:50;100658.38;;;6.08;100.00
62791;BME280;48830;53.426;10.300;2023-04-01T16:47:58;100669.63;;;6.15;100.00
62791;BME280;48830;53.426;10.300;2023-04-01T16:50:42;100671.84;;;6.04;100.00
62791;BME280;48830;53.426;10.300;2023-04-01T16:58:27;100705.69;;;5.98;100.00
62791;BME280;48830;53.426;10.300;2023-04-01T17:01:08;100698.38;;;5.84;100.00
62791;BME280;48830;53.426;10.300;2023-04-01T17:03:45;100712.66;;;5.78;100.00
62791;BME280;48830;53.426;10.300;2023-04-01T17:14:11;100731.56;;;5.85;100.00
62791;BME280;48830;53.426;10.300;2023-04-01T17:19:45;100742.94;;;5.69;100.00
62791;BME280;48830;53.426;10.300;2023-04-01T17:27:51;100775.72;;;5.59;100.00
62791;BME280;48830;53.426;10.300;2023-04-01T17:41:54;100797.53;;;5.50;100.00
62791;BME280;48830;53.426;10.300;2023-04-01T17:58:11;100822.72;;;5.43;100.00
62791;BME280;48830;53.426;10.300;2023-04-01T18:00:56;100833.09;;;5.47;100.00
62791;BME280;48830;53.426;10.300;2023-04-01T18:17:39;100875.28;;;5.39;100.00
62791;BME280;48830;53.426;10.300;2023-04-01T18:22:57;100885.78;;;5.24;100.00
62791;BME280;48830;53.426;10.300;2023-04-01T18:25:32;100897.28;;;5.15;100.00
62791;BME280;48830;53.426;10.300;2023-04-01T18:33:45;100917.13;;;5.22;100.00
62791;BME280;48830;53.426;10.300;2023-04-01T18:39:18;100941.38;;;5.12;100.00
62791;BME280;48830;53.426;10.300;2023-04-01T18:44:50;100946.66;;;5.17;100.00
62791;BME280;48830;53.426;10.300;2023-04-01T18:47:37;100955.59;;;5.07;100.00
62791;BME280;48830;53.426;10.300;2023-04-01T18:50:27;100960.75;;;5.09;100.00
62791;BME280;48830;53.426;10.300;2023-04-01T18:55:56;100975.59;;;4.98;100.00
62791;BME280;48830;53.426;10.300;2023-04-01T19:06:56;100995.16;;;4.99;100.00
62791;BME280;48830;53.426;10.300;2023-04-01T19:09:27;100997.16;;;4.85;100.00
62791;BME280;48830;53.426;10.300;2023-04-01T19:12:24;100998.63;;;4.80;100.00
62791;BME280;48830;53.426;10.300;2023-04-01T19:20:32;101013.91;;;4.80;100.00
62791;BME280;48830;53.426;10.300;2023-04-01T19:23:16;101031.22;;;5.08;100.00
62791;BME280;48830;53.426;10.300;2023-04-01T19:25:58;101037.91;;;5.27;100.00
62791;BME280;48830;53.426;10.300;2023-04-01T19:28:50;101049.13;;;5.51;100.00
62791;BME280;48830;53.426;10.300;2023-04-01T19:36:59;101040.03;;;4.95;100.00
62791;BME280;48830;53.426;10.300;2023-04-01T19:41:59;101040.75;;;4.93;100.00
62791;BME280;48830;53.426;10.300;2023-04-01T19:50:24;101071.75;;;4.63;100.00
62791;BME280;48830;53.426;10.300;2023-04-01T19:52:53;101081.66;;;4.57;100.00
62791;BME280;48830;53.426;10.300;2023-04-01T19:58:34;101105.59;;;4.41;100.00
62791;BME280;48830;53.426;10.300;2023-04-01T20:01:03;101104.09;;;4.46;100.00
62791;BME280;48830;53.426;10.300;2023-04-01T20:03:38;101110.53;;;4.38;100.00
62791;BME280;48830;53.426;10.300;2023-04-01T20:13:45;101130.47;;;4.11;100.00
62791;BME280;48830;53.426;10.300;2023-04-01T20:16:13;101141.69;;;4.15;100.00
62791;BME280;48830;53.426;10.300;2023-04-01T20:18:56;101138.47;;;4.01;100.00
62791;BME280;48830;53.426;10.300;2023-04-01T20:21:31;101149.97;;;4.11;100.00
62791;BME280;48830;53.426;10.300;2023-04-01T20:24:04;101158.25;;;4.07;100.00
62791;BME280;48830;53.426;10.300;2023-04-01T20:26:38;101159.69;;;4.02;100.00
62791;BME280;48830;53.426;10.300;2023-04-01T20:31:41;101173.56;;;3.90;100.00
62791;BME280;48830;53.426;10.300;2023-04-01T20:36:58;101183.09;;;3.94;100.00
62791;BME280;48830;53.426;10.300;2023-04-01T20:48:31;101207.47;;;3.73;100.00
62791;BME280;48830;53.426;10.300;2023-04-01T20:51:12;101212.63;;;3.75;100.00
62791;BME280;48830;53.426;10.300;2023-04-01T20:56:41;101222.56;;;3.70;100.00
62791;BME280;48830;53.426;10.300;2023-04-01T21:02:13;101222.44;;;3.67;100.00
62791;BME280;48830;53.426;10.300;2023-04-01T21:07:55;101237.78;;;3.52;100.00
62791;BME280;48830;53.426;10.300;2023-04-01T21:37:52;101273.91;;;3.14;100.00
62791;BME280;48830;53.426;10.300;2023-04-01T21:40:50;101282.94;;;3.09;100.00
62791;BME280;48830;53.426;10.300;2023-04-01T21:49:56;101304.38;;;3.14;100.00
62791;BME280;48830;53.426;10.300;2023-04-01T22:04:36;101320.28;;;2.95;100.00
62791;BME280;48830;53.426;10.300;2023-04-01T22:07:17;101324.63;;;2.81;100.00
62791;BME280;48830;53.426;10.300;2023-04-01T22:12:29;101333.03;;;2.80;100.00
62791;BME280;48830;53.426;10.300;2023-04-01T22:17:45;101346.34;;;2.76;100.00
62791;BME280;48830;53.426;10.300;2023-04-01T22:20:25;101339.78;;;2.80;100.00
62791;BME280;48830;53.426;10.300;2023-04-01T22:25:49;101360.25;;;2.68;100.00
62791;BME280;48830;53.426;10.300;2023-04-01T22:28:26;101357.09;;;2.72;100.00
62791;BME280;48830;53.426;10.300;2023-04-01T22:30:59;101365.78;;;2.61;100.00
62791;BME280;48830;53.426;10.300;2023-04-01T22:33:41;101360.72;;;2.61;100.00
62791;BME280;48830;53.426;10.300;2023-04-01T22:36:30;101376.34;;;2.69;100.00
62791;BME280;48830;53.426;10.300;2023-04-01T22:41:53;101386.53;;;2.54;100.00
62791;BME280;48830;53.426;10.300;2023-04-01T22:47:57;101399.84;;;2.50;100.00
62791;BME280;48830;53.426;10.300;2023-04-01T22:50:40;101398.97;;;2.49;100.00
62791;BME280;48830;53.426;10.300;2023-04-01T22:53:22;101404.81;;;2.48;100.00
62791;BME280;48830;53.426;10.300;2023-04-01T22:55:53;101398.16;;;2.35;100.00
62791;BME280;48830;53.426;10.300;2023-04-01T22:58:33;101405.50;;;2.46;100.00
62791;BME280;48830;53.426;10.300;2023-04-01T23:01:06;101405.88;;;2.37;100.00
62791;BME280;48830;53.426;10.300;2023-04-01T23:03:34;101411.63;;;2.34;100.00
62791;BME280;48830;53.426;10.300;2023-04-01T23:06:04;101415.31;;;2.40;100.00
62791;BME280;48830;53.426;10.300;2023-04-01T23:11:07;101426.31;;;2.40;100.00
62791;BME280;48830;53.426;10.300;2023-04-01T23:13:39;101433.66;;;2.35;100.00
62791;BME280;48830;53.426;10.300;2023-04-01T23:16:08;101433.38;;;2.31;100.00
62791;BME280;48830;53.426;10.300;2023-04-01T23:18:49;101446.78;;;2.28;100.00
62791;BME280;48830;53.426;10.300;2023-04-01T23:21:42;101440.66;;;2.25;100.00
62791;BME280;48830;53.426;10.300;2023-04-01T23:26:54;101450.50;;;2.20;100.00
62791;BME280;48830;53.426;10.300;2023-04-01T23:29:22;101452.88;;;2.17;100.00